sensor_id;sensor_type;location;lat;lon;timestamp;temperature;humidity
6956;DHT22;50345;51.136;16.886;2022-07-29T00:01:20;17.20;58.70
6956;DHT22;50345;51.136;16.886;2022-07-29T00:03:46;17.20;58.80
6956;DHT22;50345;51.136;16.886;2022-07-29T00:06:12;17.10;58.90
6956;DHT22;50345;51.136;16.886;2022-07-29T00:11:04;17.10;58.70
6956;DHT22;50345;51.136;16.886;2022-07-29T00:13:29;17.00;59.20
6956;DHT22;50345;51.136;16.886;2022-07-29T00:15:55;17.00;59.40
6956;DHT22;50345;51.136;16.886;2022-07-29T00:18:20;17.00;59.70
6956;DHT22;50345;51.136;16.886;2022-07-29T00:20:46;16.90;60.00
6956;DHT22;50345;51.136;16.886;2022-07-29T00:25:37;16.90;59.90
6956;DHT22;50345;51.136;16.886;2022-07-29T00:28:03;16.80;60.80
6956;DHT22;50345;51.136;16.886;2022-07-29T00:30:29;16.80;61.20
6956;DHT22;50345;51.136;16.886;2022-07-29T00:32:54;16.90;61.60
6956;DHT22;50345;51.136;16.886;2022-07-29T00:35:20;16.80;62.10
6956;DHT22;50345;51.136;16.886;2022-07-29T00:38:04;16.80;62.80
6956;DHT22;50345;51.136;16.886;2022-07-29T00:40:30;16.80;63.60
6956;DHT22;50345;51.136;16.886;2022-07-29T00:42:55;16.80;64.80
6956;DHT22;50345;51.136;16.886;2022-07-29T00:45:21;16.70;65.90
6956;DHT22;50345;51.136;16.886;2022-07-29T00:47:49;16.70;67.20
6956;DHT22;50345;51.136;16.886;2022-07-29T00:52:42;16.60;69.10
6956;DHT22;50345;51.136;16.886;2022-07-29T00:55:10;16.60;71.00
6956;DHT22;50345;51.136;16.886;2022-07-29T00:57:37;16.50;72.20
6956;DHT22;50345;51.136;16.886;2022-07-29T01:00:08;16.50;74.30
6956;DHT22;50345;51.136;16.886;2022-07-29T01:02:34;16.50;74.90
6956;DHT22;50345;51.136;16.886;2022-07-29T01:05:01;16.50;76.40
6956;DHT22;50345;51.136;16.886;2022-07-29T01:07:27;16.40;78.00
6956;DHT22;50345;51.136;16.886;2022-07-29T01:09:54;16.50;79.80
6956;DHT22;50345;51.136;16.886;2022-07-29T01:12:24;16.30;81.80
6956;DHT22;50345;51.136;16.886;2022-07-29T01:14:50;16.30;84.40
6956;DHT22;50345;51.136;16.886;2022-07-29T01:20:12;16.20;90.30
6956;DHT22;50345;51.136;16.886;2022-07-29T01:30:35;15.90;95.40
6956;DHT22;50345;51.136;16.886;2022-07-29T01:33:10;15.90;96.60
6956;DHT22;50345;51.136;16.886;2022-07-29T01:35:39;15.80;97.50
6956;DHT22;50345;51.136;16.886;2022-07-29T01:38:19;15.80;98.50
6956;DHT22;50345;51.136;16.886;2022-07-29T01:40:52;15.80;99.50
6956;DHT22;50345;51.136;16.886;2022-07-29T01:43:23;15.80;99.90
6956;DHT22;50345;51.136;16.886;2022-07-29T01:46:09;15.70;99.90
6956;DHT22;50345;51.136;16.886;2022-07-29T01:51:23;15.70;99.90
6956;DHT22;50345;51.136;16.886;2022-07-29T01:56:40;15.60;99.90
6956;DHT22;50345;51.136;16.886;2022-07-29T01:59:09;15.60;99.90
6956;DHT22;50345;51.136;16.886;2022-07-29T02:01:36;15.50;99.90
6956;DHT22;50345;51.136;16.886;2022-07-29T02:04:03;15.50;99.90
6956;DHT22;50345;51.136;16.886;2022-07-29T02:06:31;15.50;99.90
6956;DHT22;50345;51.136;16.886;2022-07-29T02:08:58;15.50;99.90
6956;DHT22;50345;51.136;16.886;2022-07-29T02:11:24;15.50;99.90
6956;DHT22;50345;51.136;16.886;2022-07-29T02:13:52;15.40;99.90
6956;DHT22;50345;51.136;16.886;2022-07-29T02:16:21;15.40;99.90
6956;DHT22;50345;51.136;16.886;2022-07-29T02:18:51;15.40;99.90
6956;DHT22;50345;51.136;16.886;2022-07-29T02:21:23;15.40;99.90
6956;DHT22;50345;51.136;16.886;2022-07-29T02:23:51;15.30;99.90
6956;DHT22;50345;51.136;16.886;2022-07-29T02:26:19;15.30;99.90
6956;DHT22;50345;51.136;16.886;2022-07-29T02:28:46;15.30;99.90
6956;DHT22;50345;51.136;16.886;2022-07-29T02:31:12;15.20;99.90
6956;DHT22;50345;51.136;16.886;2022-07-29T02:33:40;15.20;99.90
6956;DHT22;50345;51.136;16.886;2022-07-29T02:36:06;15.10;99.90
6956;DHT22;50345;51.136;16.886;2022-07-29T02:38:34;15.10;99.90
6956;DHT22;50345;51.136;16.886;2022-07-29T02:41:20;15.00;99.90
6956;DHT22;50345;51.136;16.886;2022-07-29T02:43:52;15.00;99.90
6956;DHT22;50345;51.136;16.886;2022-07-29T02:46:24;15.00;99.90
6956;DHT22;50345;51.136;16.886;2022-07-29T02:51:34;14.90;99.90
6956;DHT22;50345;51.136;16.886;2022-07-29T02:54:06;14.90;99.90
6956;DHT22;50345;51.136;16.886;2022-07-29T02:56:33;14.90;99.90
6956;DHT22;50345;51.136;16.886;2022-07-29T02:59:07;14.90;99.90
6956;DHT22;50345;51.136;16.886;2022-07-29T03:01:35;14.80;99.90
6956;DHT22;50345;51.136;16.886;2022-07-29T03:04:04;14.80;99.90
6956;DHT22;50345;51.136;16.886;2022-07-29T03:06:30;14.80;99.90
6956;DHT22;50345;51.136;16.886;2022-07-29T03:11:25;14.80;99.90
6956;DHT22;50345;51.136;16.886;2022-07-29T03:13:51;14.80;99.90
6956;DHT22;50345;51.136;16.886;2022-07-29T03:16:18;14.80;99.90
6956;DHT22;50345;51.136;16.886;2022-07-29T03:18:44;14.80;99.90
6956;DHT22;50345;51.136;16.886;2022-07-29T03:21:10;14.80;99.90
6956;DHT22;50345;51.136;16.886;2022-07-29T03:23:36;14.90;99.90
6956;DHT22;50345;51.136;16.886;2022-07-29T03:26:02;14.80;99.90
6956;DHT22;50345;51.136;16.886;2022-07-29T03:28:27;14.80;99.90
6956;DHT22;50345;51.136;16.886;2022-07-29T03:30:53;14.90;99.90
6956;DHT22;50345;51.136;16.886;2022-07-29T03:33:19;14.90;99.90
6956;DHT22;50345;51.136;16.886;2022-07-29T03:35:45;14.90;99.90
6956;DHT22;50345;51.136;16.886;2022-07-29T03:38:10;14.90;99.90
6956;DHT22;50345;51.136;16.886;2022-07-29T03:40:55;14.90;99.90
6956;DHT22;50345;51.136;16.886;2022-07-29T03:43:22;15.00;99.90
6956;DHT22;50345;51.136;16.886;2022-07-29T03:45:52;15.00;99.90
6956;DHT22;50345;51.136;16.886;2022-07-29T03:48:21;15.00;99.90
6956;DHT22;50345;51.136;16.886;2022-07-29T03:50:48;15.10;99.90
6956;DHT22;50345;51.136;16.886;2022-07-29T03:53:14;15.10;99.90
6956;DHT22;50345;51.136;16.886;2022-07-29T03:55:43;15.10;99.90
6956;DHT22;50345;51.136;16.886;2022-07-29T03:58:10;15.20;99.90
6956;DHT22;50345;51.136;16.886;2022-07-29T04:00:37;15.20;99.90
6956;DHT22;50345;51.136;16.886;2022-07-29T04:03:03;15.30;99.90
6956;DHT22;50345;51.136;16.886;2022-07-29T04:05:30;15.30;99.90
6956;DHT22;50345;51.136;16.886;2022-07-29T04:07:55;15.30;99.90
6956;DHT22;50345;51.136;16.886;2022-07-29T04:10:21;15.40;99.90
6956;DHT22;50345;51.136;16.886;2022-07-29T04:12:48;15.50;99.90
6956;DHT22;50345;51.136;16.886;2022-07-29T04:15:14;15.60;99.90
6956;DHT22;50345;51.136;16.886;2022-07-29T04:17:39;15.70;99.90
6956;DHT22;50345;51.136;16.886;2022-07-29T04:20:06;15.80;99.90
6956;DHT22;50345;51.136;16.886;2022-07-29T04:22:31;15.90;99.90
6956;DHT22;50345;51.136;16.886;2022-07-29T04:24:57;16.00;99.90
6956;DHT22;50345;51.136;16.886;2022-07-29T04:27:23;16.10;99.90
6956;DHT22;50345;51.136;16.886;2022-07-29T04:29:49;16.20;99.90
6956;DHT22;50345;51.136;16.886;2022-07-29T04:32:15;16.40;99.90
6956;DHT22;50345;51.136;16.886;2022-07-29T04:34:40;16.50;99.90
6956;DHT22;50345;51.136;16.886;2022-07-29T04:37:06;16.70;99.90
6956;DHT22;50345;51.136;16.886;2022-07-29T04:39:32;16.90;99.90
6956;DHT22;50345;51.136;16.886;2022-07-29T04:41:57;17.00;99.90
6956;DHT22;50345;51.136;16.886;2022-07-29T04:44:23;17.20;99.90
6956;DHT22;50345;51.136;16.886;2022-07-29T04:46:48;17.30;99.90
6956;DHT22;50345;51.136;16.886;2022-07-29T04:49:14;17.50;99.90
6956;DHT22;50345;51.136;16.886;2022-07-29T04:51:39;17.60;99.90
6956;DHT22;50345;51.136;16.886;2022-07-29T04:54:05;17.80;99.90
6956;DHT22;50345;51.136;16.886;2022-07-29T04:56:31;17.90;99.90
6956;DHT22;50345;51.136;16.886;2022-07-29T04:58:57;18.10;99.90
6956;DHT22;50345;51.136;16.886;2022-07-29T05:01:22;18.20;99.90
6956;DHT22;50345;51.136;16.886;2022-07-29T05:03:48;18.30;99.90
6956;DHT22;50345;51.136;16.886;2022-07-29T05:06:13;18.30;99.90
6956;DHT22;50345;51.136;16.886;2022-07-29T05:08:39;18.50;99.90
6956;DHT22;50345;51.136;16.886;2022-07-29T05:11:05;18.40;99.90
6956;DHT22;50345;51.136;16.886;2022-07-29T05:13:30;18.50;99.90
6956;DHT22;50345;51.136;16.886;2022-07-29T05:15:56;18.50;99.90
6956;DHT22;50345;51.136;16.886;2022-07-29T05:18:24;18.60;99.90
6956;DHT22;50345;51.136;16.886;2022-07-29T05:20:49;18.60;99.90
6956;DHT22;50345;51.136;16.886;2022-07-29T05:23:15;18.60;99.90
6956;DHT22;50345;51.136;16.886;2022-07-29T05:25:41;18.70;99.90
6956;DHT22;50345;51.136;16.886;2022-07-29T05:28:06;18.70;99.90
6956;DHT22;50345;51.136;16.886;2022-07-29T05:30:32;18.70;99.90
6956;DHT22;50345;51.136;16.886;2022-07-29T05:32:57;18.70;99.90
6956;DHT22;50345;51.136;16.886;2022-07-29T05:35:23;18.70;99.90
6956;DHT22;50345;51.136;16.886;2022-07-29T05:37:49;18.70;99.90
6956;DHT22;50345;51.136;16.886;2022-07-29T05:40:14;18.80;99.90
6956;DHT22;50345;51.136;16.886;2022-07-29T05:42:40;18.80;99.90
6956;DHT22;50345;51.136;16.886;2022-07-29T05:45:06;18.80;99.90
6956;DHT22;50345;51.136;16.886;2022-07-29T05:47:31;18.80;99.90
6956;DHT22;50345;51.136;16.886;2022-07-29T05:49:57;18.90;99.90
6956;DHT22;50345;51.136;16.886;2022-07-29T05:52:23;18.90;99.50
6956;DHT22;50345;51.136;16.886;2022-07-29T05:54:49;19.00;99.00
6956;DHT22;50345;51.136;16.886;2022-07-29T05:59:50;19.20;96.90
6956;DHT22;50345;51.136;16.886;2022-07-29T06:02:17;19.30;95.70
6956;DHT22;50345;51.136;16.886;2022-07-29T06:04:43;19.40;95.20
6956;DHT22;50345;51.136;16.886;2022-07-29T06:07:08;19.50;94.10
6956;DHT22;50345;51.136;16.886;2022-07-29T06:09:34;19.60;93.30
6956;DHT22;50345;51.136;16.886;2022-07-29T06:12:00;19.70;92.90
6956;DHT22;50345;51.136;16.886;2022-07-29T06:14:26;19.80;91.40
6956;DHT22;50345;51.136;16.886;2022-07-29T06:16:52;19.80;90.80
6956;DHT22;50345;51.136;16.886;2022-07-29T06:19:18;19.90;91.30
6956;DHT22;50345;51.136;16.886;2022-07-29T06:24:14;20.10;90.30
6956;DHT22;50345;51.136;16.886;2022-07-29T06:26:41;20.20;90.00
6956;DHT22;50345;51.136;16.886;2022-07-29T06:31:33;20.40;88.70
6956;DHT22;50345;51.136;16.886;2022-07-29T06:36:25;20.80;86.90
6956;DHT22;50345;51.136;16.886;2022-07-29T06:43:44;21.30;86.70
6956;DHT22;50345;51.136;16.886;2022-07-29T06:46:15;21.40;89.80
6956;DHT22;50345;51.136;16.886;2022-07-29T06:48:43;21.60;87.20
6956;DHT22;50345;51.136;16.886;2022-07-29T06:51:09;21.70;86.60
6956;DHT22;50345;51.136;16.886;2022-07-29T06:53:35;21.80;82.00
6956;DHT22;50345;51.136;16.886;2022-07-29T06:56:03;22.00;81.10
6956;DHT22;50345;51.136;16.886;2022-07-29T06:58:29;22.10;86.60
6956;DHT22;50345;51.136;16.886;2022-07-29T07:00:57;22.20;93.60
6956;DHT22;50345;51.136;16.886;2022-07-29T07:03:22;22.50;88.40
6956;DHT22;50345;51.136;16.886;2022-07-29T07:05:48;22.40;93.30
6956;DHT22;50345;51.136;16.886;2022-07-29T07:10:45;22.60;73.00
6956;DHT22;50345;51.136;16.886;2022-07-29T07:13:10;22.70;72.00
6956;DHT22;50345;51.136;16.886;2022-07-29T07:15:36;22.80;71.10
6956;DHT22;50345;51.136;16.886;2022-07-29T07:18:03;23.00;71.60
6956;DHT22;50345;51.136;16.886;2022-07-29T07:20:29;23.20;68.90
6956;DHT22;50345;51.136;16.886;2022-07-29T07:22:54;23.30;67.20
6956;DHT22;50345;51.136;16.886;2022-07-29T07:25:20;23.30;66.30
6956;DHT22;50345;51.136;16.886;2022-07-29T07:27:46;23.40;67.00
6956;DHT22;50345;51.136;16.886;2022-07-29T07:30:12;23.40;66.90
6956;DHT22;50345;51.136;16.886;2022-07-29T07:32:38;23.50;67.00
6956;DHT22;50345;51.136;16.886;2022-07-29T07:35:05;23.70;67.40
6956;DHT22;50345;51.136;16.886;2022-07-29T07:37:31;23.80;66.70
6956;DHT22;50345;51.136;16.886;2022-07-29T07:39:57;23.80;66.40
6956;DHT22;50345;51.136;16.886;2022-07-29T07:42:23;23.90;65.90
6956;DHT22;50345;51.136;16.886;2022-07-29T07:44:48;23.80;65.80
6956;DHT22;50345;51.136;16.886;2022-07-29T07:47:15;23.80;65.50
6956;DHT22;50345;51.136;16.886;2022-07-29T07:49:45;23.70;66.70
6956;DHT22;50345;51.136;16.886;2022-07-29T07:52:11;23.80;67.10
6956;DHT22;50345;51.136;16.886;2022-07-29T07:54:37;23.80;66.70
6956;DHT22;50345;51.136;16.886;2022-07-29T07:57:02;23.80;66.80
6956;DHT22;50345;51.136;16.886;2022-07-29T07:59:28;23.80;66.80
6956;DHT22;50345;51.136;16.886;2022-07-29T08:01:54;23.80;65.90
6956;DHT22;50345;51.136;16.886;2022-07-29T08:04:19;23.90;66.30
6956;DHT22;50345;51.136;16.886;2022-07-29T08:06:45;24.00;65.40
6956;DHT22;50345;51.136;16.886;2022-07-29T08:09:11;24.20;64.70
6956;DHT22;50345;51.136;16.886;2022-07-29T08:11:36;24.30;64.40
6956;DHT22;50345;51.136;16.886;2022-07-29T08:14:02;24.60;64.90
6956;DHT22;50345;51.136;16.886;2022-07-29T08:16:27;24.80;64.00
6956;DHT22;50345;51.136;16.886;2022-07-29T08:18:53;25.10;62.80
6956;DHT22;50345;51.136;16.886;2022-07-29T08:21:22;25.30;61.50
6956;DHT22;50345;51.136;16.886;2022-07-29T08:23:49;25.40;60.40
6956;DHT22;50345;51.136;16.886;2022-07-29T08:26:19;25.50;60.50
6956;DHT22;50345;51.136;16.886;2022-07-29T08:28:45;25.50;61.10
6956;DHT22;50345;51.136;16.886;2022-07-29T08:31:14;25.50;60.70
6956;DHT22;50345;51.136;16.886;2022-07-29T08:33:40;25.60;59.30
6956;DHT22;50345;51.136;16.886;2022-07-29T08:36:06;25.60;59.30
6956;DHT22;50345;51.136;16.886;2022-07-29T08:38:32;25.70;59.10
6956;DHT22;50345;51.136;16.886;2022-07-29T08:41:00;25.70;59.30
6956;DHT22;50345;51.136;16.886;2022-07-29T08:43:26;25.90;59.60
6956;DHT22;50345;51.136;16.886;2022-07-29T08:45:52;26.00;59.30
6956;DHT22;50345;51.136;16.886;2022-07-29T08:48:23;26.20;59.30
6956;DHT22;50345;51.136;16.886;2022-07-29T08:50:54;26.40;59.60
6956;DHT22;50345;51.136;16.886;2022-07-29T08:53:21;26.50;57.90
6956;DHT22;50345;51.136;16.886;2022-07-29T08:55:48;26.70;57.40
6956;DHT22;50345;51.136;16.886;2022-07-29T08:58:17;26.70;57.20
6956;DHT22;50345;51.136;16.886;2022-07-29T09:00:48;27.00;57.70
6956;DHT22;50345;51.136;16.886;2022-07-29T09:03:18;27.30;56.70
6956;DHT22;50345;51.136;16.886;2022-07-29T09:08:12;28.00;55.00
6956;DHT22;50345;51.136;16.886;2022-07-29T09:10:39;28.20;54.00
6956;DHT22;50345;51.136;16.886;2022-07-29T09:13:04;28.20;52.80
6956;DHT22;50345;51.136;16.886;2022-07-29T09:15:31;28.20;53.10
6956;DHT22;50345;51.136;16.886;2022-07-29T09:17:57;28.20;52.50
6956;DHT22;50345;51.136;16.886;2022-07-29T09:20:24;28.20;52.10
6956;DHT22;50345;51.136;16.886;2022-07-29T09:22:51;28.20;52.40
6956;DHT22;50345;51.136;16.886;2022-07-29T09:25:38;28.30;52.60
6956;DHT22;50345;51.136;16.886;2022-07-29T09:30:57;28.50;51.30
6956;DHT22;50345;51.136;16.886;2022-07-29T09:33:33;28.70;51.00
6956;DHT22;50345;51.136;16.886;2022-07-29T09:38:32;29.00;49.80
6956;DHT22;50345;51.136;16.886;2022-07-29T09:40:59;29.30;50.40
6956;DHT22;50345;51.136;16.886;2022-07-29T16:47:32;29.50;45.70
6956;DHT22;50345;51.136;16.886;2022-07-29T16:49:58;29.40;46.10
6956;DHT22;50345;51.136;16.886;2022-07-29T16:52:24;29.50;46.00
6956;DHT22;50345;51.136;16.886;2022-07-29T16:54:49;29.50;46.20
6956;DHT22;50345;51.136;16.886;2022-07-29T16:57:15;29.40;52.70
6956;DHT22;50345;51.136;16.886;2022-07-29T17:19:17;27.80;51.00
6956;DHT22;50345;51.136;16.886;2022-07-29T17:21:42;27.70;51.90
6956;DHT22;50345;51.136;16.886;2022-07-29T17:24:08;27.60;90.20
6956;DHT22;50345;51.136;16.886;2022-07-29T17:46:11;26.80;58.90
6956;DHT22;50345;51.136;16.886;2022-07-29T17:48:37;26.60;55.00
6956;DHT22;50345;51.136;16.886;2022-07-29T17:53:29;26.40;60.80
6956;DHT22;50345;51.136;16.886;2022-07-29T17:58:22;26.30;57.60
6956;DHT22;50345;51.136;16.886;2022-07-29T18:05:41;25.70;58.50
6956;DHT22;50345;51.136;16.886;2022-07-29T18:10:32;25.60;59.20
6956;DHT22;50345;51.136;16.886;2022-07-29T18:12:58;25.50;60.10
6956;DHT22;50345;51.136;16.886;2022-07-29T18:15:24;25.40;60.50
6956;DHT22;50345;51.136;16.886;2022-07-29T18:17:49;25.40;61.00
6956;DHT22;50345;51.136;16.886;2022-07-29T18:20:15;25.30;61.40
6956;DHT22;50345;51.136;16.886;2022-07-29T18:22:41;25.40;61.80
6956;DHT22;50345;51.136;16.886;2022-07-29T18:25:07;25.30;62.20
6956;DHT22;50345;51.136;16.886;2022-07-29T18:27:32;25.20;62.70
6956;DHT22;50345;51.136;16.886;2022-07-29T18:29:58;25.10;63.30
6956;DHT22;50345;51.136;16.886;2022-07-29T18:32:24;25.00;64.20
6956;DHT22;50345;51.136;16.886;2022-07-29T18:34:50;24.90;65.20
6956;DHT22;50345;51.136;16.886;2022-07-29T18:37:15;24.80;65.80
6956;DHT22;50345;51.136;16.886;2022-07-29T18:39:41;24.70;66.80
6956;DHT22;50345;51.136;16.886;2022-07-29T18:42:06;24.60;67.60
6956;DHT22;50345;51.136;16.886;2022-07-29T18:44:32;24.50;68.60
6956;DHT22;50345;51.136;16.886;2022-07-29T18:46:58;24.40;69.60
6956;DHT22;50345;51.136;16.886;2022-07-29T18:49:23;24.30;70.70
6956;DHT22;50345;51.136;16.886;2022-07-29T18:51:49;24.30;71.80
6956;DHT22;50345;51.136;16.886;2022-07-29T18:54:15;24.20;73.10
6956;DHT22;50345;51.136;16.886;2022-07-29T18:56:45;24.10;74.60
6956;DHT22;50345;51.136;16.886;2022-07-29T18:59:11;24.00;76.40
6956;DHT22;50345;51.136;16.886;2022-07-29T19:01:41;23.90;78.90
6956;DHT22;50345;51.136;16.886;2022-07-29T19:04:07;23.80;80.00
6956;DHT22;50345;51.136;16.886;2022-07-29T19:06:32;23.70;81.90
6956;DHT22;50345;51.136;16.886;2022-07-29T19:08:58;23.70;83.80
6956;DHT22;50345;51.136;16.886;2022-07-29T19:11:24;23.60;86.10
6956;DHT22;50345;51.136;16.886;2022-07-29T19:16:16;23.40;99.90
6956;DHT22;50345;51.136;16.886;2022-07-29T19:18:43;23.40;99.90
6956;DHT22;50345;51.136;16.886;2022-07-29T19:21:09;23.40;99.90
6956;DHT22;50345;51.136;16.886;2022-07-29T19:23:35;23.30;99.90
6956;DHT22;50345;51.136;16.886;2022-07-29T19:26:01;23.30;99.90
6956;DHT22;50345;51.136;16.886;2022-07-29T19:28:26;23.20;99.90
6956;DHT22;50345;51.136;16.886;2022-07-29T19:43:04;23.10;99.90
6956;DHT22;50345;51.136;16.886;2022-07-29T19:47:57;22.90;99.90
6956;DHT22;50345;51.136;16.886;2022-07-29T19:52:49;22.80;99.90
6956;DHT22;50345;51.136;16.886;2022-07-29T19:55:15;22.70;99.90
6956;DHT22;50345;51.136;16.886;2022-07-29T19:57:41;22.60;99.90
6956;DHT22;50345;51.136;16.886;2022-07-29T20:00:09;22.50;99.90
6956;DHT22;50345;51.136;16.886;2022-07-29T20:02:36;22.50;99.90
6956;DHT22;50345;51.136;16.886;2022-07-29T20:07:28;22.40;99.90
6956;DHT22;50345;51.136;16.886;2022-07-29T20:09:53;22.30;99.90
6956;DHT22;50345;51.136;16.886;2022-07-29T20:14:46;22.20;99.90
6956;DHT22;50345;51.136;16.886;2022-07-29T20:17:12;22.20;99.90
6956;DHT22;50345;51.136;16.886;2022-07-29T20:19:37;22.10;99.90
6956;DHT22;50345;51.136;16.886;2022-07-29T20:22:03;22.00;99.90
6956;DHT22;50345;51.136;16.886;2022-07-29T20:26:55;21.90;99.90
6956;DHT22;50345;51.136;16.886;2022-07-29T20:29:21;21.80;99.90
6956;DHT22;50345;51.136;16.886;2022-07-29T20:31:46;21.70;99.90
6956;DHT22;50345;51.136;16.886;2022-07-29T20:34:12;21.70;99.90
6956;DHT22;50345;51.136;16.886;2022-07-29T20:36:41;21.70;99.90
6956;DHT22;50345;51.136;16.886;2022-07-29T20:39:06;21.70;99.90
6956;DHT22;50345;51.136;16.886;2022-07-29T20:44:01;21.60;99.90
6956;DHT22;50345;51.136;16.886;2022-07-29T20:46:27;21.60;99.90
6956;DHT22;50345;51.136;16.886;2022-07-29T20:48:53;21.60;99.90
6956;DHT22;50345;51.136;16.886;2022-07-29T20:51:19;21.60;99.90
6956;DHT22;50345;51.136;16.886;2022-07-29T20:53:46;21.70;99.90
6956;DHT22;50345;51.136;16.886;2022-07-29T20:56:11;21.70;99.90
6956;DHT22;50345;51.136;16.886;2022-07-29T20:58:38;21.70;99.90
6956;DHT22;50345;51.136;16.886;2022-07-29T21:01:05;21.70;99.90
6956;DHT22;50345;51.136;16.886;2022-07-29T21:03:31;21.70;99.90
6956;DHT22;50345;51.136;16.886;2022-07-29T21:05:57;21.70;99.90
6956;DHT22;50345;51.136;16.886;2022-07-29T21:08:26;21.80;99.90
6956;DHT22;50345;51.136;16.886;2022-07-29T21:10:53;21.80;99.90
6956;DHT22;50345;51.136;16.886;2022-07-29T21:13:19;21.80;99.90
6956;DHT22;50345;51.136;16.886;2022-07-29T21:15:50;21.80;99.90
6956;DHT22;50345;51.136;16.886;2022-07-29T21:18:17;21.80;99.90
6956;DHT22;50345;51.136;16.886;2022-07-29T21:20:56;21.70;99.90
6956;DHT22;50345;51.136;16.886;2022-07-29T21:23:22;21.80;99.90
6956;DHT22;50345;51.136;16.886;2022-07-29T21:25:48;21.60;99.90
6956;DHT22;50345;51.136;16.886;2022-07-29T21:28:14;21.60;99.90
6956;DHT22;50345;51.136;16.886;2022-07-29T21:33:30;21.50;99.90
6956;DHT22;50345;51.136;16.886;2022-07-29T21:35:57;21.40;99.90
6956;DHT22;50345;51.136;16.886;2022-07-29T21:38:23;21.30;99.90
6956;DHT22;50345;51.136;16.886;2022-07-29T21:40:50;21.30;99.90
6956;DHT22;50345;51.136;16.886;2022-07-29T21:45:43;21.00;99.90
6956;DHT22;50345;51.136;16.886;2022-07-29T21:48:12;21.00;99.90
6956;DHT22;50345;51.136;16.886;2022-07-29T21:50:38;20.90;99.90
6956;DHT22;50345;51.136;16.886;2022-07-29T21:55:30;20.70;99.90
6956;DHT22;50345;51.136;16.886;2022-07-29T21:57:56;20.60;99.90
6956;DHT22;50345;51.136;16.886;2022-07-29T22:00:22;20.60;99.90
6956;DHT22;50345;51.136;16.886;2022-07-29T22:02:50;20.50;99.90
6956;DHT22;50345;51.136;16.886;2022-07-29T22:05:16;20.40;99.90
6956;DHT22;50345;51.136;16.886;2022-07-29T22:07:41;20.30;99.90
6956;DHT22;50345;51.136;16.886;2022-07-29T22:10:09;20.30;99.90
6956;DHT22;50345;51.136;16.886;2022-07-29T22:12:35;20.30;99.90
6956;DHT22;50345;51.136;16.886;2022-07-29T22:15:01;20.20;99.90
6956;DHT22;50345;51.136;16.886;2022-07-29T22:17:27;20.20;99.90
6956;DHT22;50345;51.136;16.886;2022-07-29T22:19:53;20.10;99.90
6956;DHT22;50345;51.136;16.886;2022-07-29T22:22:19;20.10;99.90
6956;DHT22;50345;51.136;16.886;2022-07-29T22:24:45;20.10;99.90
6956;DHT22;50345;51.136;16.886;2022-07-29T22:27:11;20.00;99.90
6956;DHT22;50345;51.136;16.886;2022-07-29T22:32:03;20.00;99.90
6956;DHT22;50345;51.136;16.886;2022-07-29T22:34:28;20.00;99.90
6956;DHT22;50345;51.136;16.886;2022-07-29T22:36:55;19.90;99.90
6956;DHT22;50345;51.136;16.886;2022-07-29T22:39:21;19.90;99.90
6956;DHT22;50345;51.136;16.886;2022-07-29T22:41:46;19.90;99.90
6956;DHT22;50345;51.136;16.886;2022-07-29T22:44:12;19.90;99.90
6956;DHT22;50345;51.136;16.886;2022-07-29T22:46:38;19.90;99.90
6956;DHT22;50345;51.136;16.886;2022-07-29T22:49:03;19.90;99.90
6956;DHT22;50345;51.136;16.886;2022-07-29T22:51:29;19.90;99.90
6956;DHT22;50345;51.136;16.886;2022-07-29T22:53:56;19.80;99.90
6956;DHT22;50345;51.136;16.886;2022-07-29T22:56:22;19.80;99.90
6956;DHT22;50345;51.136;16.886;2022-07-29T22:58:48;19.70;99.90
6956;DHT22;50345;51.136;16.886;2022-07-29T23:01:14;19.80;99.90
6956;DHT22;50345;51.136;16.886;2022-07-29T23:03:40;19.70;99.90
6956;DHT22;50345;51.136;16.886;2022-07-29T23:06:06;19.70;99.90
6956;DHT22;50345;51.136;16.886;2022-07-29T23:08:32;19.70;99.90
6956;DHT22;50345;51.136;16.886;2022-07-29T23:10:57;19.70;99.90
6956;DHT22;50345;51.136;16.886;2022-07-29T23:13:23;19.70;99.90
6956;DHT22;50345;51.136;16.886;2022-07-29T23:15:49;19.70;99.90
6956;DHT22;50345;51.136;16.886;2022-07-29T23:18:15;19.70;99.90
6956;DHT22;50345;51.136;16.886;2022-07-29T23:20:42;19.70;99.90
6956;DHT22;50345;51.136;16.886;2022-07-29T23:23:07;19.70;99.90
6956;DHT22;50345;51.136;16.886;2022-07-29T23:25:33;19.70;99.90
6956;DHT22;50345;51.136;16.886;2022-07-29T23:27:59;19.60;99.90
6956;DHT22;50345;51.136;16.886;2022-07-29T23:30:25;19.60;99.90
6956;DHT22;50345;51.136;16.886;2022-07-29T23:32:51;19.60;99.90
6956;DHT22;50345;51.136;16.886;2022-07-29T23:35:16;19.50;99.90
6956;DHT22;50345;51.136;16.886;2022-07-29T23:37:42;19.50;99.90
6956;DHT22;50345;51.136;16.886;2022-07-29T23:40:09;19.50;99.90
6956;DHT22;50345;51.136;16.886;2022-07-29T23:42:34;19.50;99.90
6956;DHT22;50345;51.136;16.886;2022-07-29T23:45:00;19.50;99.90
6956;DHT22;50345;51.136;16.886;2022-07-29T23:47:26;19.50;99.90
6956;DHT22;50345;51.136;16.886;2022-07-29T23:49:53;19.50;99.90
6956;DHT22;50345;51.136;16.886;2022-07-29T23:52:19;19.50;99.90
6956;DHT22;50345;51.136;16.886;2022-07-29T23:54:45;19.50;99.90
6956;DHT22;50345;51.136;16.886;2022-07-29T23:57:10;19.60;99.90
6956;DHT22;50345;51.136;16.886;2022-07-29T23:59:36;19.60;99.90
